Home > Products > Valid Products > TAF

000
FTUS45 KSLC 012055 AAB
TAFSLC
TAF AMD
KSLC 012055Z 0121/0224 32008KT P6SM FEW080
     FM020300 15006KT P6SM SCT200
     FM022000 32008KT P6SM FEW090 SCT200=



000
FTUS45 KSLC 012055 AAB
TAFSLC
TAF AMD
KSLC 012055Z 0121/0224 32008KT P6SM FEW080
     FM020300 15006KT P6SM SCT200
     FM022000 32008KT P6SM FEW090 SCT200=



000
FTUS45 KSLC 011954 AAA
TAFBCE
TAF AMD
KBCE 011954Z 0120/0218 32010G18KT P6SM SCT070 SCT120
     FM020100 28006KT P6SM FEW100 SCT180=



000
FTUS45 KSLC 011954 AAA
TAFBCE
TAF AMD
KBCE 011954Z 0120/0218 32010G18KT P6SM SCT070 SCT120
     FM020100 28006KT P6SM FEW100 SCT180=



000
FTUS45 KSLC 011725
TAFPVU
TAF
KPVU 011725Z 0118/0218 25006KT P6SM FEW080 SCT150
     FM020300 14005KT P6SM SCT200
      AMD LTD TO CLD VIS AND WIND=



000
FTUS45 KSLC 011725
TAFLGU
TAF
KLGU 011725Z 0118/0218 VRB05KT P6SM FEW090 SCT150=



000
FTUS45 KSLC 011725
TAFBCE
TAF
KBCE 011725Z 0118/0218 32009KT P6SM SCT070 SCT120
     FM020100 28006KT P6SM FEW100 SCT180=



000
FTUS45 KSLC 011725
TAFENV
TAF
KENV 011725Z 0118/0218 10007KT P6SM SKC
      AMD LTD TO CLD VIS AND WIND=



000
FTUS45 KSLC 011725
TAFCDC
TAF
KCDC 011725Z 0118/0218 35007KT P6SM FEW080 SCT120
     FM020200 VRB04KT P6SM SCT180=



000
FTUS45 KSLC 011725
TAFOGD
TAF
KOGD 011725Z 0118/0218 17005KT P6SM FEW080 SCT150
     FM011900 29006KT P6SM FEW080 SCT150
     FM020300 17006KT P6SM SCT200=



000
FTUS45 KSLC 011725
TAFSGU
TAF
KSGU 011725Z 0118/0218 VRB04KT P6SM SKC
     FM012100 26012KT P6SM FEW150
     FM020300 VRB04KT P6SM SCT200
      AMD LTD TO CLD VIS AND WIND=



000
FTUS45 KSLC 011725
TAFSLC
TAF
KSLC 011725Z 0118/0224 32004KT P6SM FEW080 FEW150
     FM011900 32008KT P6SM FEW080 SCT150
     FM020300 15006KT P6SM SCT200
     FM022000 32008KT P6SM FEW090 SCT200=



000
FTUS45 KSLC 011725
TAFBCE
TAF
KBCE 011725Z 0118/0218 32009KT P6SM SCT070 SCT120
     FM020100 28006KT P6SM FEW100 SCT180=



000
FTUS45 KSLC 011725
TAFLGU
TAF
KLGU 011725Z 0118/0218 VRB05KT P6SM FEW090 SCT150=



000
FTUS45 KSLC 011725
TAFENV
TAF
KENV 011725Z 0118/0218 10007KT P6SM SKC
      AMD LTD TO CLD VIS AND WIND=



000
FTUS45 KSLC 011725
TAFSGU
TAF
KSGU 011725Z 0118/0218 VRB04KT P6SM SKC
     FM012100 26012KT P6SM FEW150
     FM020300 VRB04KT P6SM SCT200
      AMD LTD TO CLD VIS AND WIND=



000
FTUS45 KSLC 011725
TAFSLC
TAF
KSLC 011725Z 0118/0224 32004KT P6SM FEW080 FEW150
     FM011900 32008KT P6SM FEW080 SCT150
     FM020300 15006KT P6SM SCT200
     FM022000 32008KT P6SM FEW090 SCT200=



000
FTUS45 KSLC 011725
TAFCDC
TAF
KCDC 011725Z 0118/0218 35007KT P6SM FEW080 SCT120
     FM020200 VRB04KT P6SM SCT180=



000
FTUS45 KSLC 011725
TAFPVU
TAF
KPVU 011725Z 0118/0218 25006KT P6SM FEW080 SCT150
     FM020300 14005KT P6SM SCT200
      AMD LTD TO CLD VIS AND WIND=



000
FTUS45 KSLC 011725
TAFOGD
TAF
KOGD 011725Z 0118/0218 17005KT P6SM FEW080 SCT150
     FM011900 29006KT P6SM FEW080 SCT150
     FM020300 17006KT P6SM SCT200=



000
FTUS45 KSLC 011644 AAC
TAFSLC
TAF AMD
KSLC 011644Z 0117/0218 32004KT P6SM FEW080 FEW150
     FM011900 32008KT P6SM SCT120 SCT200
     FM020300 15006KT P6SM SCT200=



000
FTUS45 KSLC 011644 AAC
TAFSLC
TAF AMD
KSLC 011644Z 0117/0218 32004KT P6SM FEW080 FEW150
     FM011900 32008KT P6SM SCT120 SCT200
     FM020300 15006KT P6SM SCT200=



000
FTUS45 KSLC 011450 AAB
TAFSLC
TAF AMD
KSLC 011450Z 0115/0218 15007KT P6SM FEW080 SCT200
     FM011800 32007KT P6SM SCT120 SCT200
     FM020300 15006KT P6SM SCT200=



000
FTUS45 KSLC 011450 AAB
TAFSLC
TAF AMD
KSLC 011450Z 0115/0218 15007KT P6SM FEW080 SCT200
     FM011800 32007KT P6SM SCT120 SCT200
     FM020300 15006KT P6SM SCT200=



000
FTUS45 KSLC 011120
TAFCDC
TAF
KCDC 011120Z 0112/0212 04008KT P6SM SCT090
     FM011800 02006KT P6SM SCT080 SCT120
     FM020200 04008KT P6SM SCT080 SCT120=



000
FTUS45 KSLC 011120
TAFLGU
TAF
KLGU 011120Z 0112/0212 VRB05KT P6SM SCT200=



000
FTUS45 KSLC 011120
TAFOGD
TAF
KOGD 011120Z 0112/0212 17007KT P6SM SCT200
     FM011900 30006KT P6SM SCT120 SCT200
     FM020300 17005KT P6SM SCT120 SCT200=



000
FTUS45 KSLC 011120
TAFPVU
TAF
KPVU 011120Z 0112/0212 VRB04KT P6SM BKN200
     FM011900 24007KT P6SM BKN200
      AMD LTD TO CLD VIS AND WIND=



000
FTUS45 KSLC 011120
TAFPVU
TAF
KPVU 011120Z 0112/0212 VRB04KT P6SM BKN200
     FM011900 24007KT P6SM BKN200
      AMD LTD TO CLD VIS AND WIND=



000
FTUS45 KSLC 011120
TAFLGU
TAF
KLGU 011120Z 0112/0212 VRB05KT P6SM SCT200=



000
FTUS45 KSLC 011120
TAFCDC
TAF
KCDC 011120Z 0112/0212 04008KT P6SM SCT090
     FM011800 02006KT P6SM SCT080 SCT120
     FM020200 04008KT P6SM SCT080 SCT120=



000
FTUS45 KSLC 011120
TAFBCE
TAF
KBCE 011120Z 0112/0212 27007KT P6SM SCT080 BKN120
     FM011800 32007KT P6SM VCSH SCT080 BKN100
     FM020100 29007KT P6SM SCT100 BKN120=



000
FTUS45 KSLC 011120
TAFOGD
TAF
KOGD 011120Z 0112/0212 17007KT P6SM SCT200
     FM011900 30006KT P6SM SCT120 SCT200
     FM020300 17005KT P6SM SCT120 SCT200=



000
FTUS45 KSLC 011120
TAFSLC
TAF
KSLC 011120Z 0112/0218 15007KT P6SM SCT080 BKN200
     FM011800 32007KT P6SM SCT120 SCT200
     FM020300 15006KT P6SM SCT200=



000
FTUS45 KSLC 011120
TAFSGU
TAF
KSGU 011120Z 0112/0212 VRB04KT P6SM SCT120
     FM012100 26012KT P6SM SCT120
     FM020200 VRB04KT P6SM SCT120
      AMD LTD TO CLD VIS AND WIND=



000
FTUS45 KSLC 011120
TAFENV
TAF
KENV 011120Z 0112/0212 VRB05KT P6SM SCT100 BKN200
     FM011600 10007KT P6SM SKC
      AMD LTD TO CLD VIS AND WIND=



000
FTUS45 KSLC 011120
TAFSGU
TAF
KSGU 011120Z 0112/0212 VRB04KT P6SM SCT120
     FM012100 26012KT P6SM SCT120
     FM020200 VRB04KT P6SM SCT120
      AMD LTD TO CLD VIS AND WIND=



000
FTUS45 KSLC 011120
TAFSLC
TAF
KSLC 011120Z 0112/0218 15007KT P6SM SCT080 BKN200
     FM011800 32007KT P6SM SCT120 SCT200
     FM020300 15006KT P6SM SCT200=



000
FTUS45 KSLC 011120
TAFENV
TAF
KENV 011120Z 0112/0212 VRB05KT P6SM SCT100 BKN200
     FM011600 10007KT P6SM SKC
      AMD LTD TO CLD VIS AND WIND=



000
FTUS45 KSLC 011120
TAFBCE
TAF
KBCE 011120Z 0112/0212 27007KT P6SM SCT080 BKN120
     FM011800 32007KT P6SM VCSH SCT080 BKN100
     FM020100 29007KT P6SM SCT100 BKN120=



000
FTUS45 KSLC 010905 AAB
TAFSLC
TAF AMD
KSLC 010905Z 0109/0212 15006KT P6SM SCT080 BKN200
     FM011800 32007KT P6SM SCT120 SCT200
     FM020300 15006KT P6SM SCT200=



000
FTUS45 KSLC 010905 AAB
TAFSLC
TAF AMD
KSLC 010905Z 0109/0212 15006KT P6SM SCT080 BKN200
     FM011800 32007KT P6SM SCT120 SCT200
     FM020300 15006KT P6SM SCT200=



000
FTUS45 KSLC 010642 AAA
TAFSGU
TAF AMD
KSGU 010642Z 0107/0206 VRB04KT P6SM SCT080 BKN120
     FM012100 26012KT P6SM SCT080 BKN120
      AMD LTD TO CLD VIS AND WIND=



000
FTUS45 KSLC 010642 AAA
TAFSGU
TAF AMD
KSGU 010642Z 0107/0206 VRB04KT P6SM SCT080 BKN120
     FM012100 26012KT P6SM SCT080 BKN120
      AMD LTD TO CLD VIS AND WIND=



000
FTUS45 KSLC 010642 AAA
TAFCDC
TAF AMD
KCDC 010642Z 0107/0206 04008KT P6SM SCT090
     FM011800 35006KT P6SM SCT080 SCT120=



000
FTUS45 KSLC 010642 AAA
TAFCDC
TAF AMD
KCDC 010642Z 0107/0206 04008KT P6SM SCT090
     FM011800 35006KT P6SM SCT080 SCT120=



000
FTUS45 KSLC 010537
TAFLGU
TAF
KLGU 010537Z 0106/0206 VRB05KT P6SM SCT200=



000
FTUS45 KSLC 010537
TAFBCE
TAF
KBCE 010537Z 0106/0206 34012KT P6SM -SHRA BKN080 BKN100
     FM010800 31009KT P6SM SCT080 BKN120=



000
FTUS45 KSLC 010537
TAFOGD
TAF
KOGD 010537Z 0106/0206 17005KT P6SM SCT200
     FM011900 30006KT P6SM SCT120 SCT200=



000
FTUS45 KSLC 010537
TAFSGU
TAF
KSGU 010537Z 0106/0206 04018G28KT P6SM -SHRA SCT060 BKN080
     FM010700 VRB04KT P6SM SCT080 BKN120
     FM012100 26012KT P6SM SCT080 BKN120
      AMD LTD TO CLD VIS AND WIND=



000
FTUS45 KSLC 010537
TAFSLC
TAF
KSLC 010537Z 0106/0212 15007KT P6SM SCT080 BKN200
     FM011800 32007KT P6SM SCT120 SCT200
     FM020300 15006KT P6SM SCT200=



000
FTUS45 KSLC 010537
TAFPVU
TAF
KPVU 010537Z 0106/0206 VRB04KT P6SM BKN200
     FM011900 24007KT P6SM BKN200
      AMD LTD TO CLD VIS AND WIND=



000
FTUS45 KSLC 010537
TAFENV
TAF
KENV 010537Z 0106/0206 30007KT P6SM SCT100 BKN200
     FM011600 10007KT P6SM SKC
      AMD LTD TO CLD VIS AND WIND=



000
FTUS45 KSLC 010537
TAFCDC
TAF
KCDC 010537Z 0106/0206 12014KT P6SM SCT090
     FM011800 35006KT P6SM SCT080 SCT120=



000
FTUS45 KSLC 010537
TAFLGU
TAF
KLGU 010537Z 0106/0206 VRB05KT P6SM SCT200=



000
FTUS45 KSLC 010537
TAFPVU
TAF
KPVU 010537Z 0106/0206 VRB04KT P6SM BKN200
     FM011900 24007KT P6SM BKN200
      AMD LTD TO CLD VIS AND WIND=



000
FTUS45 KSLC 010537
TAFSLC
TAF
KSLC 010537Z 0106/0212 15007KT P6SM SCT080 BKN200
     FM011800 32007KT P6SM SCT120 SCT200
     FM020300 15006KT P6SM SCT200=



000
FTUS45 KSLC 010537
TAFBCE
TAF
KBCE 010537Z 0106/0206 34012KT P6SM -SHRA BKN080 BKN100
     FM010800 31009KT P6SM SCT080 BKN120=



000
FTUS45 KSLC 010537
TAFSGU
TAF
KSGU 010537Z 0106/0206 04018G28KT P6SM -SHRA SCT060 BKN080
     FM010700 VRB04KT P6SM SCT080 BKN120
     FM012100 26012KT P6SM SCT080 BKN120
      AMD LTD TO CLD VIS AND WIND=



000
FTUS45 KSLC 010537
TAFOGD
TAF
KOGD 010537Z 0106/0206 17005KT P6SM SCT200
     FM011900 30006KT P6SM SCT120 SCT200=



000
FTUS45 KSLC 010537
TAFENV
TAF
KENV 010537Z 0106/0206 30007KT P6SM SCT100 BKN200
     FM011600 10007KT P6SM SKC
      AMD LTD TO CLD VIS AND WIND=



000
FTUS45 KSLC 010537
TAFCDC
TAF
KCDC 010537Z 0106/0206 12014KT P6SM SCT090
     FM011800 35006KT P6SM SCT080 SCT120=



000
FTUS45 KSLC 010509 AAC
TAFCDC
TAF AMD
KCDC 010509Z 0105/0124 11014KT P6SM -SHRA BKN090
     FM010800 02006KT P6SM SCT080 BKN150=



000
FTUS45 KSLC 010509 AAC
TAFSGU
TAF AMD
KSGU 010509Z 0105/0124 04015G25KT P6SM -SHRA SCT060 BKN080
     FM010700 VRB04KT P6SM SCT080 BKN120
      AMD LTD TO CLD VIS AND WIND=



000
FTUS45 KSLC 010509 AAC
TAFCDC
TAF AMD
KCDC 010509Z 0105/0124 11014KT P6SM -SHRA BKN090
     FM010800 02006KT P6SM SCT080 BKN150=



000
FTUS45 KSLC 010509 AAC
TAFSGU
TAF AMD
KSGU 010509Z 0105/0124 04015G25KT P6SM -SHRA SCT060 BKN080
     FM010700 VRB04KT P6SM SCT080 BKN120
      AMD LTD TO CLD VIS AND WIND=



000
FTUS45 KSLC 010349 AAB
TAFBCE
TAF AMD
KBCE 010349Z 0104/0124 VRB25G35KT P6SM -TSRA SCT070CB BKN100
     FM010600 31009KT P6SM SCT080 BKN150=



000
FTUS45 KSLC 010349 AAB
TAFBCE
TAF AMD
KBCE 010349Z 0104/0124 VRB25G35KT P6SM -TSRA SCT070CB BKN100
     FM010600 31009KT P6SM SCT080 BKN150=



000
FTUS45 KSLC 010321 AAB
TAFSGU
TAF AMD
KSGU 010321Z 0103/0124 08015G36KT P6SM -TSRA SCT060CB BKN080
     FM010500 VRB04KT P6SM SCT080 BKN120
      AMD LTD TO CLD VIS AND WIND=



000
FTUS45 KSLC 010321 AAB
TAFCDC
TAF AMD
KCDC 010321Z 0103/0124 02013G23KT P6SM -TSRA SCT040CB BKN080
     FM010500 02006KT P6SM SCT080 BKN150=



000
FTUS45 KSLC 010321 AAB
TAFCDC
TAF AMD
KCDC 010321Z 0103/0124 02013G23KT P6SM -TSRA SCT040CB BKN080
     FM010500 02006KT P6SM SCT080 BKN150=



000
FTUS45 KSLC 010321 AAB
TAFSGU
TAF AMD
KSGU 010321Z 0103/0124 08015G36KT P6SM -TSRA SCT060CB BKN080
     FM010500 VRB04KT P6SM SCT080 BKN120
      AMD LTD TO CLD VIS AND WIND=



000
FTUS45 KSLC 010309 AAB
TAFSLC
TAF AMD
KSLC 010309Z 0103/0206 31005KT P6SM FEW070 BKN200
     FM010400 15007KT P6SM SCT080 BKN200
     FM011900 32007KT P6SM SKC
     FM020300 15006KT P6SM SKC=



000
FTUS45 KSLC 010309 AAB
TAFSLC
TAF AMD
KSLC 010309Z 0103/0206 31005KT P6SM FEW070 BKN200
     FM010400 15007KT P6SM SCT080 BKN200
     FM011900 32007KT P6SM SKC
     FM020300 15006KT P6SM SKC=



000
FTUS45 KSLC 010244 AAA
TAFBCE
TAF AMD
KBCE 010244Z 0103/0124 04008KT P6SM VCSH SCT070 BKN100
     FM010500 31009KT P6SM SCT080 BKN150=



000
FTUS45 KSLC 010244 AAA
TAFBCE
TAF AMD
KBCE 010244Z 0103/0124 04008KT P6SM VCSH SCT070 BKN100
     FM010500 31009KT P6SM SCT080 BKN150=



000
FTUS45 KSLC 010244 AAA
TAFCDC
TAF AMD
KCDC 010244Z 0103/0124 02006KT P6SM VCTS SCT080CB BKN100
     FM010300 02010KT P6SM -TSRA SCT040CB BKN080
     FM010500 02006KT P6SM SCT080 BKN150=



000
FTUS45 KSLC 010244 AAA
TAFCDC
TAF AMD
KCDC 010244Z 0103/0124 02006KT P6SM VCTS SCT080CB BKN100
     FM010300 02010KT P6SM -TSRA SCT040CB BKN080
     FM010500 02006KT P6SM SCT080 BKN150=



000
FTUS45 KSLC 010234 AAA
TAFSGU
TAF AMD
KSGU 010234Z 0103/0124 05020G35KT P6SM VCSH SCT080 BKN120
     FM010300 12010KT P6SM VCSH SCT080 BKN120
     FM010500 VRB04KT P6SM SCT080 BKN120
      AMD LTD TO CLD VIS AND WIND=



000
FTUS45 KSLC 010234 AAA
TAFSGU
TAF AMD
KSGU 010234Z 0103/0124 05020G35KT P6SM VCSH SCT080 BKN120
     FM010300 12010KT P6SM VCSH SCT080 BKN120
     FM010500 VRB04KT P6SM SCT080 BKN120
      AMD LTD TO CLD VIS AND WIND=



000
FTUS45 KSLC 312337
TAFSGU
TAF
KSGU 312337Z 0100/0124 26010KT P6SM SCT080 BKN120
     FM010300 VRB04KT P6SM SCT080 BKN120
      AMD LTD TO CLD VIS AND WIND=



000
FTUS45 KSLC 312337
TAFBCE
TAF
KBCE 312337Z 0100/0124 16011KT P6SM SCT070 BKN080
     FM010300 31009KT P6SM SCT080 BKN150=



000
FTUS45 KSLC 312337
TAFCDC
TAF
KCDC 312337Z 0100/0124 35007KT P6SM VCSH SCT080 BKN120
     FM010300 02006KT P6SM BKN150=



000
FTUS45 KSLC 312337
TAFSLC
TAF
KSLC 312337Z 0100/0206 31007KT P6SM FEW070 BKN200
     FM010400 15007KT P6SM SCT080 BKN200
     FM011900 32007KT P6SM SKC
     FM020300 15006KT P6SM SKC=



000
FTUS45 KSLC 312337
TAFPVU
TAF
KPVU 312337Z 0100/0124 28009KT P6SM VCSH SCT060 SCT120
     FM010400 VRB04KT P6SM BKN200
      AMD LTD TO CLD VIS AND WIND=



000
FTUS45 KSLC 312337
TAFOGD
TAF
KOGD 312337Z 0100/0124 30007KT P6SM FEW080 SCT200
     FM010500 17005KT P6SM SKC=



000
FTUS45 KSLC 312337
TAFENV
TAF
KENV 312337Z 0100/0124 VRB05KT P6SM SCT100 BKN200
     FM011600 09007KT P6SM SKC
      AMD LTD TO CLD VIS AND WIND=



000
FTUS45 KSLC 312337
TAFSGU
TAF
KSGU 312337Z 0100/0124 26010KT P6SM SCT080 BKN120
     FM010300 VRB04KT P6SM SCT080 BKN120
      AMD LTD TO CLD VIS AND WIND=



000
FTUS45 KSLC 312337
TAFBCE
TAF
KBCE 312337Z 0100/0124 16011KT P6SM SCT070 BKN080
     FM010300 31009KT P6SM SCT080 BKN150=



000
FTUS45 KSLC 312337
TAFPVU
TAF
KPVU 312337Z 0100/0124 28009KT P6SM VCSH SCT060 SCT120
     FM010400 VRB04KT P6SM BKN200
      AMD LTD TO CLD VIS AND WIND=



000
FTUS45 KSLC 312337
TAFSLC
TAF
KSLC 312337Z 0100/0206 31007KT P6SM FEW070 BKN200
     FM010400 15007KT P6SM SCT080 BKN200
     FM011900 32007KT P6SM SKC
     FM020300 15006KT P6SM SKC=



000
FTUS45 KSLC 312337
TAFENV
TAF
KENV 312337Z 0100/0124 VRB05KT P6SM SCT100 BKN200
     FM011600 09007KT P6SM SKC
      AMD LTD TO CLD VIS AND WIND=



000
FTUS45 KSLC 312337
TAFLGU
TAF
KLGU 312337Z 0100/0124 VRB05KT P6SM SCT200=



000
FTUS45 KSLC 312337
TAFCDC
TAF
KCDC 312337Z 0100/0124 35007KT P6SM VCSH SCT080 BKN120
     FM010300 02006KT P6SM BKN150=



000
FTUS45 KSLC 312337
TAFOGD
TAF
KOGD 312337Z 0100/0124 30007KT P6SM FEW080 SCT200
     FM010500 17005KT P6SM SKC=



000
FTUS45 KSLC 312337
TAFLGU
TAF
KLGU 312337Z 0100/0124 VRB05KT P6SM SCT200=



000
FTUS45 KSLC 312254 AAA
TAFBCE
TAF AMD
KBCE 312254Z 3123/0118 30010G16KT P6SM VCTS SCT060CB BKN100
      TEMPO 3123/3124 VRB15G30KT 5SM TSRA BKN060CB
     FM010100 30010KT P6SM VCSH SCT070 BKN080
     FM010300 31010KT P6SM SCT080 BKN100=



000
FTUS45 KSLC 312254 AAA
TAFBCE
TAF AMD
KBCE 312254Z 3123/0118 30010G16KT P6SM VCTS SCT060CB BKN100
      TEMPO 3123/3124 VRB15G30KT 5SM TSRA BKN060CB
     FM010100 30010KT P6SM VCSH SCT070 BKN080
     FM010300 31010KT P6SM SCT080 BKN100=



000
FTUS45 KSLC 312105 AAB
TAFSLC
TAF AMD
KSLC 312105Z 3121/0124 31007KT P6SM FEW070 SCT200
     FM010300 15007KT P6SM SCT080 BKN150
     FM011900 32007KT P6SM SKC=



000
FTUS45 KSLC 312105 AAB
TAFSLC
TAF AMD
KSLC 312105Z 3121/0124 31007KT P6SM FEW070 SCT200
     FM010300 15007KT P6SM SCT080 BKN150
     FM011900 32007KT P6SM SKC=



000
FTUS45 KSLC 311727
TAFOGD
TAF
KOGD 311727Z 3118/0118 30007KT P6SM FEW080 SCT120
     FM010500 17005KT P6SM SKC=



000
FTUS45 KSLC 311727
TAFCDC
TAF
KCDC 311727Z 3118/0118 35007KT P6SM VCSH SCT080 BKN120
     FM010300 02006KT P6SM BKN150=



000
FTUS45 KSLC 311727
TAFSLC
TAF
KSLC 311727Z 3118/0124 35008KT P6SM FEW080 SCT120
     FM010300 15007KT P6SM SCT080 BKN150
     FM011900 32007KT P6SM SKC=



000
FTUS45 KSLC 311727
TAFPVU
TAF
KPVU 311727Z 3118/0118 VRB05KT P6SM SCT070
     FM312000 28009KT P6SM SCT060 SCT120
     FM010400 VRB04KT P6SM BKN150
      AMD LTD TO CLD VIS AND WIND=



000
FTUS45 KSLC 311727
TAFBCE
TAF
KBCE 311727Z 3118/0118 30010G16KT P6SM VCTS SCT080CB BKN100
     FM312300 30010KT P6SM VCSH SCT070 BKN080
     FM010300 31010KT P6SM SCT080 BKN100=



000
FTUS45 KSLC 311727
TAFSGU
TAF
KSGU 311727Z 3118/0118 01006KT P6SM FEW080 SCT140
     FM312000 26010KT P6SM SCT080 BKN120
     FM010300 VRB04KT P6SM SCT080 BKN120
      AMD LTD TO CLD VIS AND WIND=



000
FTUS45 KSLC 311727
TAFLGU
TAF
KLGU 311727Z 3118/0118 VRB05KT P6SM SCT150=



000
FTUS45 KSLC 311727
TAFPVU
TAF
KPVU 311727Z 3118/0118 VRB05KT P6SM SCT070
     FM312000 28009KT P6SM SCT060 SCT120
     FM010400 VRB04KT P6SM BKN150
      AMD LTD TO CLD VIS AND WIND=



000
FTUS45 KSLC 311727
TAFOGD
TAF
KOGD 311727Z 3118/0118 30007KT P6SM FEW080 SCT120
     FM010500 17005KT P6SM SKC=



000
FTUS45 KSLC 311727
TAFCDC
TAF
KCDC 311727Z 3118/0118 35007KT P6SM VCSH SCT080 BKN120
     FM010300 02006KT P6SM BKN150=



000
FTUS45 KSLC 311727
TAFBCE
TAF
KBCE 311727Z 3118/0118 30010G16KT P6SM VCTS SCT080CB BKN100
     FM312300 30010KT P6SM VCSH SCT070 BKN080
     FM010300 31010KT P6SM SCT080 BKN100=



000
FTUS45 KSLC 311727
TAFENV
TAF
KENV 311727Z 3118/0118 08009KT P6SM SCT090 SCT120
     FM010300 VRB05KT P6SM SCT090 BKN150
     FM011600 09007KT P6SM SKC
      AMD LTD TO CLD VIS AND WIND=



000
FTUS45 KSLC 311727
TAFSGU
TAF
KSGU 311727Z 3118/0118 01006KT P6SM FEW080 SCT140
     FM312000 26010KT P6SM SCT080 BKN120
     FM010300 VRB04KT P6SM SCT080 BKN120
      AMD LTD TO CLD VIS AND WIND=



000
FTUS45 KSLC 311727
TAFSLC
TAF
KSLC 311727Z 3118/0124 35008KT P6SM FEW080 SCT120
     FM010300 15007KT P6SM SCT080 BKN150
     FM011900 32007KT P6SM SKC=



000
FTUS45 KSLC 311727
TAFLGU
TAF
KLGU 311727Z 3118/0118 VRB05KT P6SM SCT150=



000
FTUS45 KSLC 311727
TAFENV
TAF
KENV 311727Z 3118/0118 08009KT P6SM SCT090 SCT120
     FM010300 VRB05KT P6SM SCT090 BKN150
     FM011600 09007KT P6SM SKC
      AMD LTD TO CLD VIS AND WIND=



000
FTUS45 KSLC 311457 AAA
TAFSLC
TAF AMD
KSLC 311457Z 3115/0118 32004KT P6SM FEW100 SCT200
     FM312000 33008KT P6SM SCT080 SCT120
     FM010300 15007KT P6SM SCT080 BKN150=



000
FTUS45 KSLC 311457 AAA
TAFSLC
TAF AMD
KSLC 311457Z 3115/0118 32004KT P6SM FEW100 SCT200
     FM312000 33008KT P6SM SCT080 SCT120
     FM010300 15007KT P6SM SCT080 BKN150=



000
FTUS45 KSLC 311120
TAFOGD
TAF
KOGD 311120Z 3112/0112 28006KT P6SM FEW100 SCT200
     FM311900 30007KT P6SM FEW080 SCT120=



000
FTUS45 KSLC 311120
TAFOGD
TAF
KOGD 311120Z 3112/0112 28006KT P6SM FEW100 SCT200
     FM311900 30007KT P6SM FEW080 SCT120=



000
FTUS45 KSLC 311120
TAFSLC
TAF
KSLC 311120Z 3112/0118 15007KT P6SM FEW100 SCT200
     FM311600 33008KT P6SM FEW080 SCT120
     FM010300 15007KT P6SM SCT080 BKN150=



000
FTUS45 KSLC 311120
TAFPVU
TAF
KPVU 311120Z 3112/0112 VRB05KT P6SM FEW100 SCT200
     FM312000 28009KT P6SM SCT080 SCT120
      AMD LTD TO CLD VIS AND WIND=



000
FTUS45 KSLC 311120
TAFENV
TAF
KENV 311120Z 3112/0112 VRB05KT P6SM SCT120 SCT200
     FM311500 08009KT P6SM SCT090 SCT120
     FM010300 01010KT P6SM SCT090 SCT120
      AMD LTD TO CLD VIS AND WIND=



000
FTUS45 KSLC 311120
TAFPVU
TAF
KPVU 311120Z 3112/0112 VRB05KT P6SM FEW100 SCT200
     FM312000 28009KT P6SM SCT080 SCT120
      AMD LTD TO CLD VIS AND WIND=



000
FTUS45 KSLC 311120
TAFLGU
TAF
KLGU 311120Z 3112/0112 VRB05KT P6SM SCT100 SCT120=



000
FTUS45 KSLC 311120
TAFCDC
TAF
KCDC 311120Z 3112/0112 VRB05KT P6SM FEW080 BKN150
     FM311900 35007KT P6SM SCT080 BKN120=



000
FTUS45 KSLC 311120
TAFCDC
TAF
KCDC 311120Z 3112/0112 VRB05KT P6SM FEW080 BKN150
     FM311900 35007KT P6SM SCT080 BKN120=



000
FTUS45 KSLC 311120
TAFLGU
TAF
KLGU 311120Z 3112/0112 VRB05KT P6SM SCT100 SCT120=



000
FTUS45 KSLC 311120
TAFBCE
TAF
KBCE 311120Z 3112/0112 31007KT P6SM SCT100 BKN140
     FM311800 30010G16KT P6SM VCTS SCT080CB BKN100
     FM312300 30010KT P6SM VCSH SCT070 BKN080
     FM010300 31010KT P6SM SCT080 BKN100=



000
FTUS45 KSLC 311120
TAFENV
TAF
KENV 311120Z 3112/0112 VRB05KT P6SM SCT120 SCT200
     FM311500 08009KT P6SM SCT090 SCT120
     FM010300 01010KT P6SM SCT090 SCT120
      AMD LTD TO CLD VIS AND WIND=



000
FTUS45 KSLC 311120
TAFSLC
TAF
KSLC 311120Z 3112/0118 15007KT P6SM FEW100 SCT200
     FM311600 33008KT P6SM FEW080 SCT120
     FM010300 15007KT P6SM SCT080 BKN150=



000
FTUS45 KSLC 311120
TAFSGU
TAF
KSGU 311120Z 3112/0112 01006KT P6SM FEW080 SCT140
     FM312000 26010KT P6SM SCT080 BKN120
     FM010300 VRB04KT P6SM SCT080 BKN120
      AMD LTD TO CLD VIS AND WIND=



000
FTUS45 KSLC 310905 AAB
TAFSLC
TAF AMD
KSLC 310905Z 3109/0112 15007KT P6SM FEW100 SCT200
     FM311700 33008KT P6SM FEW080 SCT120
     FM010300 15007KT P6SM SCT080 BKN150=



000
FTUS45 KSLC 310905 AAB
TAFSLC
TAF AMD
KSLC 310905Z 3109/0112 15007KT P6SM FEW100 SCT200
     FM311700 33008KT P6SM FEW080 SCT120
     FM010300 15007KT P6SM SCT080 BKN150=



000
FTUS45 KSLC 310707 AAA
TAFLGU
TAF AMD
KLGU 310707Z 3107/0106 16012KT P6SM FEW100 SCT200
     FM310900 VRB05KT P6SM SCT100 SCT120=



000
FTUS45 KSLC 310707 AAA
TAFLGU
TAF AMD
KLGU 310707Z 3107/0106 16012KT P6SM FEW100 SCT200
     FM310900 VRB05KT P6SM SCT100 SCT120=



000
FTUS45 KSLC 310520
TAFPVU
TAF
KPVU 310520Z 3106/0106 VRB05KT P6SM FEW100 SCT200
     FM312000 28009KT P6SM SCT080 SCT120
      AMD LTD TO CLD VIS AND WIND=



000
FTUS45 KSLC 310520
TAFLGU
TAF
KLGU 310520Z 3106/0106 VRB04KT P6SM FEW100 SCT200
     FM311800 VRB05KT P6SM SCT100 SCT120=



000
FTUS45 KSLC 310520
TAFSGU
TAF
KSGU 310520Z 3106/0106 VRB04KT P6SM FEW080 SCT140
     FM312000 26010KT P6SM SCT080 BKN120
      AMD LTD TO CLD VIS AND WIND=



000
FTUS45 KSLC 310520
TAFBCE
TAF
KBCE 310520Z 3106/0106 31007KT P6SM SCT100 BKN140
     FM311800 30010G16KT P6SM VCSH SCT080 BKN120=



000
FTUS45 KSLC 310520
TAFCDC
TAF
KCDC 310520Z 3106/0106 VRB05KT P6SM FEW080 BKN150
     FM311900 32007KT P6SM SCT080 BKN120=



000
FTUS45 KSLC 310520
TAFENV
TAF
KENV 310520Z 3106/0106 VRB05KT P6SM SCT120 SCT200
     FM311500 08009KT P6SM SCT090 SCT120
      AMD LTD TO CLD VIS AND WIND=



000
FTUS45 KSLC 310520
TAFENV
TAF
KENV 310520Z 3106/0106 VRB05KT P6SM SCT120 SCT200
     FM311500 08009KT P6SM SCT090 SCT120
      AMD LTD TO CLD VIS AND WIND=



000
FTUS45 KSLC 310520
TAFOGD
TAF
KOGD 310520Z 3106/0106 17007KT P6SM FEW100 SCT200
     FM311900 30007KT P6SM FEW080 SCT120=



000
FTUS45 KSLC 310520
TAFSLC
TAF
KSLC 310520Z 3106/0112 15007KT P6SM FEW100 SCT200
     FM311700 33008KT P6SM FEW080 SCT120
     FM010300 15007KT P6SM SCT080 BKN150=



000
FTUS45 KSLC 310520
TAFCDC
TAF
KCDC 310520Z 3106/0106 VRB05KT P6SM FEW080 BKN150
     FM311900 32007KT P6SM SCT080 BKN120=



000
FTUS45 KSLC 310520
TAFSLC
TAF
KSLC 310520Z 3106/0112 15007KT P6SM FEW100 SCT200
     FM311700 33008KT P6SM FEW080 SCT120
     FM010300 15007KT P6SM SCT080 BKN150=



000
FTUS45 KSLC 310520
TAFPVU
TAF
KPVU 310520Z 3106/0106 VRB05KT P6SM FEW100 SCT200
     FM312000 28009KT P6SM SCT080 SCT120
      AMD LTD TO CLD VIS AND WIND=



000
FTUS45 KSLC 310520
TAFOGD
TAF
KOGD 310520Z 3106/0106 17007KT P6SM FEW100 SCT200
     FM311900 30007KT P6SM FEW080 SCT120=



000
FTUS45 KSLC 310520
TAFSGU
TAF
KSGU 310520Z 3106/0106 VRB04KT P6SM FEW080 SCT140
     FM312000 26010KT P6SM SCT080 BKN120
      AMD LTD TO CLD VIS AND WIND=



000
FTUS45 KSLC 310520
TAFLGU
TAF
KLGU 310520Z 3106/0106 VRB04KT P6SM FEW100 SCT200
     FM311800 VRB05KT P6SM SCT100 SCT120=



000
FTUS45 KSLC 310520
TAFBCE
TAF
KBCE 310520Z 3106/0106 31007KT P6SM SCT100 BKN140
     FM311800 30010G16KT P6SM VCSH SCT080 BKN120=



000
FTUS45 KSLC 310455 AAC
TAFLGU
TAF AMD
KLGU 310455Z 3105/3124 23008KT P6SM SCT070 BKN100
     FM310600 VRB04KT P6SM FEW100 SCT200=



000
FTUS45 KSLC 310455 AAC
TAFLGU
TAF AMD
KLGU 310455Z 3105/3124 23008KT P6SM SCT070 BKN100
     FM310600 VRB04KT P6SM FEW100 SCT200=



000
FTUS45 KSLC 310419 AAB
TAFLGU
TAF AMD
KLGU 310419Z 3104/3124 11011G24KT P6SM SCT070 BKN100
     FM310600 VRB04KT P6SM FEW100 SCT200=



000
FTUS45 KSLC 310419 AAB
TAFLGU
TAF AMD
KLGU 310419Z 3104/3124 11011G24KT P6SM SCT070 BKN100
     FM310600 VRB04KT P6SM FEW100 SCT200=



000
FTUS45 KSLC 310245 AAC
TAFSLC
TAF AMD
KSLC 310245Z 3103/0106 10011KT P6SM SCT100
     FM310500 15007KT P6SM FEW100 SCT200
     FM311900 33008KT P6SM FEW080 SCT150
     FM010300 15007KT P6SM SCT080 BKN150=



000
FTUS45 KSLC 310245 AAC
TAFSLC
TAF AMD
KSLC 310245Z 3103/0106 10011KT P6SM SCT100
     FM310500 15007KT P6SM FEW100 SCT200
     FM311900 33008KT P6SM FEW080 SCT150
     FM010300 15007KT P6SM SCT080 BKN150=



000
FTUS45 KSLC 310202 AAB
TAFOGD
TAF AMD
KOGD 310202Z 3102/3124 06011KT P6SM SCT100
     FM310500 17007KT P6SM FEW100 SCT200
     FM311900 30007KT P6SM FEW080 SCT150=



000
FTUS45 KSLC 310202 AAB
TAFOGD
TAF AMD
KOGD 310202Z 3102/3124 06011KT P6SM SCT100
     FM310500 17007KT P6SM FEW100 SCT200
     FM311900 30007KT P6SM FEW080 SCT150=



000
FTUS45 KSLC 310104 AAA
TAFLGU
TAF AMD
KLGU 310104Z 3101/3124 11011KT P6SM SCT070 BKN100
      TEMPO 3101/3103 11018G27KT
     FM310300 VRB04KT P6SM FEW100 SCT200=



000
FTUS45 KSLC 310104 AAA
TAFLGU
TAF AMD
KLGU 310104Z 3101/3124 11011KT P6SM SCT070 BKN100
      TEMPO 3101/3103 11018G27KT
     FM310300 VRB04KT P6SM FEW100 SCT200=



000
FTUS45 KSLC 310057 AAC
TAFSLC
TAF AMD
KSLC 310057Z 3101/0106 08011KT P6SM SCT060 BKN110
     FM310300 15007KT P6SM FEW100 SCT200
     FM311900 33008KT P6SM FEW080 SCT150
     FM010300 15007KT P6SM SCT080 BKN150=



000
FTUS45 KSLC 310057 AAC
TAFSLC
TAF AMD
KSLC 310057Z 3101/0106 08011KT P6SM SCT060 BKN110
     FM310300 15007KT P6SM FEW100 SCT200
     FM311900 33008KT P6SM FEW080 SCT150
     FM010300 15007KT P6SM SCT080 BKN150=



000
FTUS45 KSLC 310034 AAB
TAFSLC
TAF AMD
KSLC 310034Z 3101/0106 08007KT P6SM SCT060 BKN110
     FM310300 15007KT P6SM FEW100 SCT200
     FM311900 33008KT P6SM FEW080 SCT150
     FM010300 15007KT P6SM SCT080 BKN150=



000
FTUS45 KSLC 310034 AAB
TAFSLC
TAF AMD
KSLC 310034Z 3101/0106 08007KT P6SM SCT060 BKN110
     FM310300 15007KT P6SM FEW100 SCT200
     FM311900 33008KT P6SM FEW080 SCT150
     FM010300 15007KT P6SM SCT080 BKN150=



000
FTUS45 KSLC 310003 AAA
TAFOGD
TAF AMD
KOGD 310003Z 3100/3124 VRB05KT P6SM SCT060 BKN100
      TEMPO 3100/3102 06012G20KT
     FM310300 17007KT P6SM FEW100 SCT200
     FM311900 30007KT P6SM FEW080 SCT150=



000
FTUS45 KSLC 302338
TAFSLC
TAF
KSLC 302338Z 3100/0106 35007KT P6SM SCT060 BKN110
     FM310300 15007KT P6SM FEW100 SCT200
     FM311900 33008KT P6SM FEW080 SCT150
     FM010300 15007KT P6SM SCT080 BKN150=



000
FTUS45 KSLC 302338
TAFPVU
TAF
KPVU 302338Z 3100/3124 31011KT P6SM VCSH SCT070 BKN110
     FM310500 VRB05KT P6SM FEW100 SCT200
     FM312000 28009KT P6SM SCT080 SCT150
      AMD LTD TO CLD VIS AND WIND=



000
FTUS45 KSLC 302338
TAFCDC
TAF
KCDC 302338Z 3100/3124 34007KT P6SM SCT080 SCT150
     FM310400 VRB05KT P6SM FEW080 BKN150
     FM311900 32007KT P6SM SCT080 BKN120=



000
FTUS45 KSLC 302338
TAFSGU
TAF
KSGU 302338Z 3100/3124 24007KT P6SM VCTS SCT080CB
      TEMPO 3100/3101 VRB10G20KT -SHRA BKN080
     FM310200 VRB04KT P6SM FEW080 SCT140
     FM312000 26010KT P6SM SCT080 BKN140
      AMD LTD TO CLD VIS AND WIND=



000
FTUS45 KSLC 302338
TAFBCE
TAF
KBCE 302338Z 3100/3124 29011G16KT P6SM VCSH SCT100 BKN140
     FM310200 31007KT P6SM SCT100 BKN140
     FM311800 30010G16KT P6SM VCSH SCT080 BKN120=



000
FTUS45 KSLC 302338
TAFOGD
TAF
KOGD 302338Z 3100/3124 VRB05KT P6SM SCT060 BKN100
     FM310300 17007KT P6SM FEW100 SCT200
     FM311900 30007KT P6SM FEW080 SCT150=



000
FTUS45 KSLC 302338
TAFLGU
TAF
KLGU 302338Z 3100/3124 11011KT P6SM SCT070 BKN100
      TEMPO 3100/3101 11015G22KT
     FM310300 VRB04KT P6SM FEW100 SCT200=



000
FTUS45 KSLC 302338
TAFENV
TAF
KENV 302338Z 3100/3124 10010G15KT P6SM FEW100 SCT150
     FM310300 VRB05KT P6SM SCT120 SCT200
     FM311500 08009KT P6SM SCT090 BKN120
      AMD LTD TO CLD VIS AND WIND=



000
FTUS45 KSLC 302338
TAFCDC
TAF
KCDC 302338Z 3100/3124 34007KT P6SM SCT080 SCT150
     FM310400 VRB05KT P6SM FEW080 BKN150
     FM311900 32007KT P6SM SCT080 BKN120=



000
FTUS45 KSLC 302338
TAFPVU
TAF
KPVU 302338Z 3100/3124 31011KT P6SM VCSH SCT070 BKN110
     FM310500 VRB05KT P6SM FEW100 SCT200
     FM312000 28009KT P6SM SCT080 SCT150
      AMD LTD TO CLD VIS AND WIND=



000
FTUS45 KSLC 302338
TAFBCE
TAF
KBCE 302338Z 3100/3124 29011G16KT P6SM VCSH SCT100 BKN140
     FM310200 31007KT P6SM SCT100 BKN140
     FM311800 30010G16KT P6SM VCSH SCT080 BKN120=



000
FTUS45 KSLC 302338
TAFOGD
TAF
KOGD 302338Z 3100/3124 VRB05KT P6SM SCT060 BKN100
     FM310300 17007KT P6SM FEW100 SCT200
     FM311900 30007KT P6SM FEW080 SCT150=



000
FTUS45 KSLC 302338
TAFLGU
TAF
KLGU 302338Z 3100/3124 11011KT P6SM SCT070 BKN100
      TEMPO 3100/3101 11015G22KT
     FM310300 VRB04KT P6SM FEW100 SCT200=



000
FTUS45 KSLC 302338
TAFENV
TAF
KENV 302338Z 3100/3124 10010G15KT P6SM FEW100 SCT150
     FM310300 VRB05KT P6SM SCT120 SCT200
     FM311500 08009KT P6SM SCT090 BKN120
      AMD LTD TO CLD VIS AND WIND=



000
FTUS45 KSLC 302338
TAFSGU
TAF
KSGU 302338Z 3100/3124 24007KT P6SM VCTS SCT080CB
      TEMPO 3100/3101 VRB10G20KT -SHRA BKN080
     FM310200 VRB04KT P6SM FEW080 SCT140
     FM312000 26010KT P6SM SCT080 BKN140
      AMD LTD TO CLD VIS AND WIND=



000
FTUS45 KSLC 302338
TAFSLC
TAF
KSLC 302338Z 3100/0106 35007KT P6SM SCT060 BKN110
     FM310300 15007KT P6SM FEW100 SCT200
     FM311900 33008KT P6SM FEW080 SCT150
     FM010300 15007KT P6SM SCT080 BKN150=



000
FTUS45 KSLC 302219 AAB
TAFSGU
TAF AMD
KSGU 302219Z 3022/3118 24007KT P6SM VCSH SCT080
      TEMPO 3023/3024 VRB10G20KT -TSRA BKN080CB
     FM310300 VRB04KT P6SM FEW080 SCT140
      AMD LTD TO CLD VIS AND WIND=



000
FTUS45 KSLC 302219 AAB
TAFSGU
TAF AMD
KSGU 302219Z 3022/3118 24007KT P6SM VCSH SCT080
      TEMPO 3023/3024 VRB10G20KT -TSRA BKN080CB
     FM310300 VRB04KT P6SM FEW080 SCT140
      AMD LTD TO CLD VIS AND WIND=



000
FTUS45 KSLC 302218 AAA
TAFCDC
TAF AMD
KCDC 302218Z 3022/3118 34007KT P6SM SCT080
     FM310300 VRB05KT P6SM FEW080 SCT140=



000
FTUS45 KSLC 302218 AAA
TAFCDC
TAF AMD
KCDC 302218Z 3022/3118 34007KT P6SM SCT080
     FM310300 VRB05KT P6SM FEW080 SCT140=



000
FTUS45 KSLC 302218 AAC
TAFOGD
TAF AMD
KOGD 302218Z 3022/3118 19007KT P6SM VCSH SCT050 BKN080
     FM310300 16006KT P6SM SCT120 SCT200=



000
FTUS45 KSLC 302217 AAA
TAFLGU
TAF AMD
KLGU 302217Z 3022/3118 11011KT P6SM VCSH SCT070 BKN100
      TEMPO 3022/3024 11015G22KT
     FM310200 VRB04KT P6SM FEW100 SCT200=



000
FTUS45 KSLC 302217 AAA
TAFLGU
TAF AMD
KLGU 302217Z 3022/3118 11011KT P6SM VCSH SCT070 BKN100
      TEMPO 3022/3024 11015G22KT
     FM310200 VRB04KT P6SM FEW100 SCT200=



000
FTUS45 KSLC 302100 AAC
TAFSLC
TAF AMD
KSLC 302100Z 3021/3124 35007KT P6SM VCSH SCT050 BKN080
     FM310300 15006KT P6SM FEW080 SCT200=



000
FTUS45 KSLC 302100 AAC
TAFSLC
TAF AMD
KSLC 302100Z 3021/3124 35007KT P6SM VCSH SCT050 BKN080
     FM310300 15006KT P6SM FEW080 SCT200=



000
FTUS45 KSLC 302006 AAB
TAFOGD
TAF AMD
KOGD 302006Z 3020/3118 15007KT P6SM VCSH BKN040 BKN070
     FM302100 34009KT P6SM VCSH SCT070 BKN110
     FM310300 16006KT P6SM SCT120 SCT200=



000
FTUS45 KSLC 302006 AAB
TAFOGD
TAF AMD
KOGD 302006Z 3020/3118 15007KT P6SM VCSH BKN040 BKN070
     FM302100 34009KT P6SM VCSH SCT070 BKN110
     FM310300 16006KT P6SM SCT120 SCT200=



000
FTUS45 KSLC 302005 AAA
TAFENV
TAF AMD
KENV 302005Z 3020/3118 10012G18KT P6SM FEW100 SCT150
     FM310300 VRB05KT P6SM SKC
      AMD LTD TO CLD VIS AND WIND=



000
FTUS45 KSLC 302005 AAA
TAFENV
TAF AMD
KENV 302005Z 3020/3118 10012G18KT P6SM FEW100 SCT150
     FM310300 VRB05KT P6SM SKC
      AMD LTD TO CLD VIS AND WIND=



000
FTUS45 KSLC 301850 AAA
TAFOGD
TAF AMD
KOGD 301850Z 3019/3118 15011KT P6SM VCSH BKN070 OVC110
     FM302000 34009KT P6SM VCSH SCT070 BKN110
     FM310300 16006KT P6SM SCT120 SCT200=



000
FTUS45 KSLC 301850 AAA
TAFOGD
TAF AMD
KOGD 301850Z 3019/3118 15011KT P6SM VCSH BKN070 OVC110
     FM302000 34009KT P6SM VCSH SCT070 BKN110
     FM310300 16006KT P6SM SCT120 SCT200=



000
FTUS45 KSLC 301803 AAB
TAFSLC
TAF AMD
KSLC 301803Z 3018/3124 35010KT P6SM VCSH SCT050 BKN080
     FM310400 15006KT P6SM FEW080 SCT200=



000
FTUS45 KSLC 301803 AAB
TAFSLC
TAF AMD
KSLC 301803Z 3018/3124 35010KT P6SM VCSH SCT050 BKN080
     FM310400 15006KT P6SM FEW080 SCT200=



000
FTUS45 KSLC 301744 AAA
TAFBCE
TAF AMD
KBCE 301744Z 3018/3118 29010KT P6SM FEW100 SCT140
     FM302000 31010G15KT P6SM VCSH SCT100 BKN140
     FM310200 31007KT P6SM FEW100 SCT140=



000
FTUS45 KSLC 301742 AAA
TAFSGU
TAF AMD
KSGU 301742Z 3018/3118 34007KT P6SM FEW080
     FM302100 32010G15KT P6SM SCT080 SCT140
     FM310300 VRB04KT P6SM FEW080 SCT140
      AMD LTD TO CLD VIS AND WIND=



000
FTUS45 KSLC 301742 AAA
TAFSGU
TAF AMD
KSGU 301742Z 3018/3118 34007KT P6SM FEW080
     FM302100 32010G15KT P6SM SCT080 SCT140
     FM310300 VRB04KT P6SM FEW080 SCT140
      AMD LTD TO CLD VIS AND WIND=



000
FTUS45 KSLC 301740
TAFCDC
TAF
KCDC 301740Z 3018/3118 34007KT P6SM SCT080
     FM302000 02010G15KT P6SM SCT080 BKN140
     FM310300 VRB05KT P6SM FEW080 SCT140=



000
FTUS45 KSLC 301740
TAFLGU
TAF
KLGU 301740Z 3018/3118 36007KT P6SM OVC070
     FM302100 34009KT P6SM SCT070 BKN100
     FM310200 VRB04KT P6SM FEW100 SCT200=



000
FTUS45 KSLC 301740
TAFBCE
TAF
KBCE 301740Z 3018/3118 31011KT P6SM SCT100 BKN140
     FM310300 31007KT P6SM SCT140=



000
FTUS45 KSLC 301740
TAFOGD
TAF
KOGD 301740Z 3018/3118 24007KT P6SM VCSH BKN070 OVC110
     FM302000 34009KT P6SM VCSH SCT070 BKN110
     FM310300 16006KT P6SM SCT120 SCT200=



000
FTUS45 KSLC 301740
TAFSGU
TAF
KSGU 301740Z 3018/3118 34007KT P6SM SCT100
     FM302100 02008KT P6SM SCT080 SCT140
      AMD LTD TO CLD VIS AND WIND=



000
FTUS45 KSLC 301740
TAFSLC
TAF
KSLC 301740Z 3018/3124 36010KT P6SM -SHRA VCTS SCT020CB BKN050
     FM301900 36010KT P6SM VCSH SCT050 BKN080
     FM310400 15006KT P6SM FEW080 SCT200=



000
FTUS45 KSLC 301740
TAFENV
TAF
KENV 301740Z 3018/3118 06008KT P6SM FEW100
     FM302000 06012G18KT P6SM FEW100 SCT150
     FM310300 VRB05KT P6SM SKC
      AMD LTD TO CLD VIS AND WIND=



000
FTUS45 KSLC 301740
TAFPVU
TAF
KPVU 301740Z 3018/3118 VRB05KT P6SM SCT040 BKN070
     FM302000 32012G18KT P6SM VCSH SCT070 BKN110
     FM310400 VRB05KT P6SM FEW100 SCT200
      AMD LTD TO CLD VIS AND WIND=



000
FTUS45 KSLC 301740
TAFBCE
TAF
KBCE 301740Z 3018/3118 31011KT P6SM SCT100 BKN140
     FM310300 31007KT P6SM SCT140=



000
FTUS45 KSLC 301740
TAFLGU
TAF
KLGU 301740Z 3018/3118 36007KT P6SM OVC070
     FM302100 34009KT P6SM SCT070 BKN100
     FM310200 VRB04KT P6SM FEW100 SCT200=



000
FTUS45 KSLC 301740
TAFPVU
TAF
KPVU 301740Z 3018/3118 VRB05KT P6SM SCT040 BKN070
     FM302000 32012G18KT P6SM VCSH SCT070 BKN110
     FM310400 VRB05KT P6SM FEW100 SCT200
      AMD LTD TO CLD VIS AND WIND=



000
FTUS45 KSLC 301740
TAFOGD
TAF
KOGD 301740Z 3018/3118 24007KT P6SM VCSH BKN070 OVC110
     FM302000 34009KT P6SM VCSH SCT070 BKN110
     FM310300 16006KT P6SM SCT120 SCT200=



000
FTUS45 KSLC 301740
TAFSLC
TAF
KSLC 301740Z 3018/3124 36010KT P6SM -SHRA VCTS SCT020CB BKN050
     FM301900 36010KT P6SM VCSH SCT050 BKN080
     FM310400 15006KT P6SM FEW080 SCT200=



000
FTUS45 KSLC 301740
TAFCDC
TAF
KCDC 301740Z 3018/3118 34007KT P6SM SCT080
     FM302000 02010G15KT P6SM SCT080 BKN140
     FM310300 VRB05KT P6SM FEW080 SCT140=



000
FTUS45 KSLC 301740
TAFSGU
TAF
KSGU 301740Z 3018/3118 34007KT P6SM SCT100
     FM302100 02008KT P6SM SCT080 SCT140
      AMD LTD TO CLD VIS AND WIND=



000
FTUS45 KSLC 301740
TAFENV
TAF
KENV 301740Z 3018/3118 06008KT P6SM FEW100
     FM302000 06012G18KT P6SM FEW100 SCT150
     FM310300 VRB05KT P6SM SKC
      AMD LTD TO CLD VIS AND WIND=



000
FTUS45 KSLC 301635 AAD
TAFSLC
TAF AMD
KSLC 301635Z 3017/3118 34010KT P6SM VCTS SCT020 BKN050CB
     FM301800 35007KT P6SM SCT050 BKN100
     FM302100 34012G18KT P6SM FEW110 SCT140
     FM310500 15005KT P6SM SCT140=



000
FTUS45 KSLC 301602 AAC
TAFSLC
TAF AMD
KSLC 301602Z 3016/3118 36006KT P6SM SCT020 BKN060
     FM301800 35007KT P6SM SCT050 BKN100
     FM302100 34012G18KT P6SM FEW110 SCT140
     FM310500 15005KT P6SM SCT140=



000
FTUS45 KSLC 301602 AAC
TAFSLC
TAF AMD
KSLC 301602Z 3016/3118 36006KT P6SM SCT020 BKN060
     FM301800 35007KT P6SM SCT050 BKN100
     FM302100 34012G18KT P6SM FEW110 SCT140
     FM310500 15005KT P6SM SCT140=



000
FTUS45 KSLC 301502 AAC
TAFSLC
TAF AMD
KSLC 301502Z 3015/3118 31005KT P6SM SCT020 BKN060
     FM301600 35007KT P6SM SCT050 BKN100
     FM302100 34012G18KT P6SM FEW110 SCT140
     FM310500 15005KT P6SM SCT140=



000
FTUS45 KSLC 301502 AAC
TAFSLC
TAF AMD
KSLC 301502Z 3015/3118 31005KT P6SM SCT020 BKN060
     FM301600 35007KT P6SM SCT050 BKN100
     FM302100 34012G18KT P6SM FEW110 SCT140
     FM310500 15005KT P6SM SCT140=



000
FTUS45 KSLC 301120
TAFLGU
TAF
KLGU 301120Z 3012/3112 29008KT P6SM VCSH BKN090 OVC100
     FM301300 01005KT P6SM SCT090 BKN140
     FM301700 35006KT P6SM SCT100 BKN140
     FM310300 13004KT P6SM SCT140=



000
FTUS45 KSLC 301120
TAFSLC
TAF
KSLC 301120Z 3012/3118 23004KT P6SM VCSH SCT050 BKN100
     FM301300 31005KT P6SM SCT090 BKN140
     FM301600 35007KT P6SM SCT050 BKN100
     FM302100 34012G18KT P6SM FEW110 SCT140
     FM310500 15005KT P6SM SCT140=



000
FTUS45 KSLC 301120
TAFPVU
TAF
KPVU 301120Z 3012/3112 12006KT P6SM VCSH SCT060 BKN090
      TEMPO 3012/3013 -SHRA BKN060
     FM301300 14008KT P6SM SCT060 BKN090
     FM301500 28008KT P6SM SCT090 BKN120
     FM302100 32012G18KT P6SM FEW110 SCT140
     FM310500 VRB05KT P6SM SCT140
      AMD LTD TO CLD VIS AND WIND=



000
FTUS45 KSLC 301120
TAFCDC
TAF
KCDC 301120Z 3012/3112 VRB05KT P6SM SCT080 SCT140
     FM301600 34007KT P6SM SCT080
     FM302100 02008KT P6SM SCT080 BKN140=



000
FTUS45 KSLC 301120
TAFOGD
TAF
KOGD 301120Z 3012/3112 10005KT P6SM VCSH BKN040 OVC100
     FM301300 30006KT P6SM SCT080 BKN110
     FM301600 08006KT P6SM SCT110 BKN140
     FM302100 08012G18KT P6SM FEW110 SCT140
     FM310300 15005KT P6SM SCT140=



000
FTUS45 KSLC 301120
TAFENV
TAF
KENV 301120Z 3012/3112 VRB03KT P6SM FEW100 SCT140
     FM301500 09009KT P6SM FEW100 SCT140
     FM302100 08012G18KT P6SM SCT150
     FM310300 VRB05KT P6SM SKC
      AMD LTD TO CLD VIS AND WIND=



000
FTUS45 KSLC 301120
TAFPVU
TAF
KPVU 301120Z 3012/3112 12006KT P6SM VCSH SCT060 BKN090
      TEMPO 3012/3013 -SHRA BKN060
     FM301300 14008KT P6SM SCT060 BKN090
     FM301500 28008KT P6SM SCT090 BKN120
     FM302100 32012G18KT P6SM FEW110 SCT140
     FM310500 VRB05KT P6SM SCT140
      AMD LTD TO CLD VIS AND WIND=



000
FTUS45 KSLC 301120
TAFLGU
TAF
KLGU 301120Z 3012/3112 29008KT P6SM VCSH BKN090 OVC100
     FM301300 01005KT P6SM SCT090 BKN140
     FM301700 35006KT P6SM SCT100 BKN140
     FM310300 13004KT P6SM SCT140=



000
FTUS45 KSLC 301120
TAFENV
TAF
KENV 301120Z 3012/3112 VRB03KT P6SM FEW100 SCT140
     FM301500 09009KT P6SM FEW100 SCT140
     FM302100 08012G18KT P6SM SCT150
     FM310300 VRB05KT P6SM SKC
      AMD LTD TO CLD VIS AND WIND=



000
FTUS45 KSLC 301120
TAFBCE
TAF
KBCE 301120Z 3012/3112 29006KT P6SM FEW080 SCT120
     FM301800 31011KT P6SM SCT100 BKN140
     FM310300 31007KT P6SM SCT140=



000
FTUS45 KSLC 301120
TAFSLC
TAF
KSLC 301120Z 3012/3118 23004KT P6SM VCSH SCT050 BKN100
     FM301300 31005KT P6SM SCT090 BKN140
     FM301600 35007KT P6SM SCT050 BKN100
     FM302100 34012G18KT P6SM FEW110 SCT140
     FM310500 15005KT P6SM SCT140=



000
FTUS45 KSLC 301120
TAFSGU
TAF
KSGU 301120Z 3012/3112 VRB05KT P6SM SCT140
     FM301600 34007KT P6SM SCT100
     FM302100 02008KT P6SM SCT080 SCT140
      AMD LTD TO CLD VIS AND WIND=



000
FTUS45 KSLC 301120
TAFOGD
TAF
KOGD 301120Z 3012/3112 10005KT P6SM VCSH BKN040 OVC100
     FM301300 30006KT P6SM SCT080 BKN110
     FM301600 08006KT P6SM SCT110 BKN140
     FM302100 08012G18KT P6SM FEW110 SCT140
     FM310300 15005KT P6SM SCT140=



000
FTUS45 KSLC 301120
TAFBCE
TAF
KBCE 301120Z 3012/3112 29006KT P6SM FEW080 SCT120
     FM301800 31011KT P6SM SCT100 BKN140
     FM310300 31007KT P6SM SCT140=



000
FTUS45 KSLC 301120
TAFCDC
TAF
KCDC 301120Z 3012/3112 VRB05KT P6SM SCT080 SCT140
     FM301600 34007KT P6SM SCT080
     FM302100 02008KT P6SM SCT080 BKN140=



000
FTUS45 KSLC 301120
TAFSGU
TAF
KSGU 301120Z 3012/3112 VRB05KT P6SM SCT140
     FM301600 34007KT P6SM SCT100
     FM302100 02008KT P6SM SCT080 SCT140
      AMD LTD TO CLD VIS AND WIND=



000
FTUS45 KSLC 301001 AAB
TAFSLC
TAF AMD
KSLC 301001Z 3010/3112 23004KT 5SM -RA SCT050 BKN100
     FM301100 31005KT P6SM SCT090 BKN140
     FM301600 35007KT P6SM SCT050 BKN100
     FM302100 34012G18KT P6SM FEW110 SCT140
     FM310500 15005KT P6SM SCT140=



000
FTUS45 KSLC 300857 AAB
TAFSLC
TAF AMD
KSLC 300857Z 3009/3112 10007KT P6SM VCSH SCT025 BKN030 OVC050
     FM301000 18005KT P6SM SCT090 BKN140
     FM301600 35007KT P6SM SCT050 BKN100
     FM302100 34012G18KT P6SM FEW110 SCT140
     FM310500 15005KT P6SM SCT140=



000
FTUS45 KSLC 300857 AAB
TAFSLC
TAF AMD
KSLC 300857Z 3009/3112 10007KT P6SM VCSH SCT025 BKN030 OVC050
     FM301000 18005KT P6SM SCT090 BKN140
     FM301600 35007KT P6SM SCT050 BKN100
     FM302100 34012G18KT P6SM FEW110 SCT140
     FM310500 15005KT P6SM SCT140=



000
FTUS45 KSLC 300714 AAA
TAFCDC
TAF AMD
KCDC 300714Z 3007/3106 VRB05KT P6SM -TSRA BKN080CB BKN100
     FM300800 04005KT P6SM VCTS SCT080CB BKN120
     FM300900 VRB03KT P6SM SCT080 SCT140
     FM301600 34007KT P6SM SCT080
     FM302100 02008KT P6SM SCT080 BKN140=



000
FTUS45 KSLC 300714 AAA
TAFCDC
TAF AMD
KCDC 300714Z 3007/3106 VRB05KT P6SM -TSRA BKN080CB BKN100
     FM300800 04005KT P6SM VCTS SCT080CB BKN120
     FM300900 VRB03KT P6SM SCT080 SCT140
     FM301600 34007KT P6SM SCT080
     FM302100 02008KT P6SM SCT080 BKN140=



000
FTUS45 KSLC 300631 AAA
TAFSLC
TAF AMD
KSLC 300631Z 3007/3112 10007KT P6SM VCTS SCT040CB BKN090 OVC110
      TEMPO 3007/3009 34006G15KT -TSRA BKN040CB BKN090 OVC110
     FM300900 18005KT P6SM SCT090 BKN140
     FM301600 35007KT P6SM SCT050 BKN100
     FM302100 34012G18KT P6SM FEW110 SCT140
     FM310500 15005KT P6SM SCT140=



000
FTUS45 KSLC 300631 AAA
TAFSLC
TAF AMD
KSLC 300631Z 3007/3112 10007KT P6SM VCTS SCT040CB BKN090 OVC110
      TEMPO 3007/3009 34006G15KT -TSRA BKN040CB BKN090 OVC110
     FM300900 18005KT P6SM SCT090 BKN140
     FM301600 35007KT P6SM SCT050 BKN100
     FM302100 34012G18KT P6SM FEW110 SCT140
     FM310500 15005KT P6SM SCT140=



000
FTUS45 KSLC 300520
TAFLGU
TAF
KLGU 300520Z 3006/3106 33008KT P6SM VCSH FEW030 BKN040 OVC060
     FM300800 11006KT P6SM VCSH SCT040 BKN070
     FM301000 01005KT P6SM SCT070 BKN140
     FM301700 35006KT P6SM SCT100
     FM310300 13004KT P6SM SKC=



000
FTUS45 KSLC 300520
TAFOGD
TAF
KOGD 300520Z 3006/3106 05010KT P6SM -SHRA VCTS BKN080CB OVC100
      TEMPO 3006/3007 -TSRA SCT060 BKN080CB
     FM300700 VRB05KT P6SM VCSH SCT080 BKN100
     FM301000 30006KT P6SM SCT080 BKN110
     FM301600 08006KT P6SM SCT110 BKN140
     FM302100 08012G18KT P6SM FEW110 SCT140
     FM310300 15005KT P6SM SCT140=



000
FTUS45 KSLC 300520
TAFCDC
TAF
KCDC 300520Z 3006/3106 04005KT P6SM BKN080 BKN120
     FM300800 VRB03KT P6SM SCT080 SCT140
     FM301600 34007KT P6SM SCT080
     FM302100 02008KT P6SM SCT080 BKN140=



000
FTUS45 KSLC 300520
TAFSLC
TAF
KSLC 300520Z 3006/3112 34006KT P6SM VCSH FEW060 BKN090 OVC120
     FM300800 18005KT P6SM SCT090 BKN140
     FM301600 35007KT P6SM SCT050 BKN100
     FM302100 34012G18KT P6SM FEW110 SCT140
     FM310500 15005KT P6SM SCT140=



000
FTUS45 KSLC 300520
TAFBCE
TAF
KBCE 300520Z 3006/3106 32009KT P6SM VCSH SCT060 BKN100
     FM300800 34006KT P6SM SCT080 BKN120
     FM301800 31011KT P6SM SCT100 BKN140
     FM310300 31007KT P6SM SCT140=



000
FTUS45 KSLC 300520
TAFSGU
TAF
KSGU 300520Z 3006/3106 VRB04KT P6SM SCT140
     FM301600 34007KT P6SM SCT100
     FM302100 02008KT P6SM SCT080 SCT140
      AMD LTD TO CLD VIS AND WIND=



000
FTUS45 KSLC 300520
TAFPVU
TAF
KPVU 300520Z 3006/3106 10006KT P6SM VCSH SCT060 BKN090
     FM300800 14008KT P6SM SCT060 BKN090
     FM301500 28008KT P6SM SCT090 BKN120
     FM302100 32012G18KT P6SM FEW110 SCT140
     FM310500 VRB05KT P6SM SCT140
      AMD LTD TO CLD VIS AND WIND=



000
FTUS45 KSLC 300520
TAFENV
TAF
KENV 300520Z 3006/3106 02008KT P6SM VCSH SCT100 BKN140
     FM300800 VRB05KT P6SM FEW100 SCT140
     FM301500 09009KT P6SM FEW100 SCT150
     FM302100 08012G18KT P6SM SCT150
     FM310300 05008KT P6SM SKC
      AMD LTD TO CLD VIS AND WIND=



000
FTUS45 KSLC 300520
TAFLGU
TAF
KLGU 300520Z 3006/3106 33008KT P6SM VCSH FEW030 BKN040 OVC060
     FM300800 11006KT P6SM VCSH SCT040 BKN070
     FM301000 01005KT P6SM SCT070 BKN140
     FM301700 35006KT P6SM SCT100
     FM310300 13004KT P6SM SKC=



000
FTUS45 KSLC 300520
TAFENV
TAF
KENV 300520Z 3006/3106 02008KT P6SM VCSH SCT100 BKN140
     FM300800 VRB05KT P6SM FEW100 SCT140
     FM301500 09009KT P6SM FEW100 SCT150
     FM302100 08012G18KT P6SM SCT150
     FM310300 05008KT P6SM SKC
      AMD LTD TO CLD VIS AND WIND=



000
FTUS45 KSLC 300520
TAFPVU
TAF
KPVU 300520Z 3006/3106 10006KT P6SM VCSH SCT060 BKN090
     FM300800 14008KT P6SM SCT060 BKN090
     FM301500 28008KT P6SM SCT090 BKN120
     FM302100 32012G18KT P6SM FEW110 SCT140
     FM310500 VRB05KT P6SM SCT140
      AMD LTD TO CLD VIS AND WIND=



000
FTUS45 KSLC 300520
TAFSLC
TAF
KSLC 300520Z 3006/3112 34006KT P6SM VCSH FEW060 BKN090 OVC120
     FM300800 18005KT P6SM SCT090 BKN140
     FM301600 35007KT P6SM SCT050 BKN100
     FM302100 34012G18KT P6SM FEW110 SCT140
     FM310500 15005KT P6SM SCT140=



000
FTUS45 KSLC 300520
TAFOGD
TAF
KOGD 300520Z 3006/3106 05010KT P6SM -SHRA VCTS BKN080CB OVC100
      TEMPO 3006/3007 -TSRA SCT060 BKN080CB
     FM300700 VRB05KT P6SM VCSH SCT080 BKN100
     FM301000 30006KT P6SM SCT080 BKN110
     FM301600 08006KT P6SM SCT110 BKN140
     FM302100 08012G18KT P6SM FEW110 SCT140
     FM310300 15005KT P6SM SCT140=



000
FTUS45 KSLC 300520
TAFSGU
TAF
KSGU 300520Z 3006/3106 VRB04KT P6SM SCT140
     FM301600 34007KT P6SM SCT100
     FM302100 02008KT P6SM SCT080 SCT140
      AMD LTD TO CLD VIS AND WIND=



000
FTUS45 KSLC 300520
TAFCDC
TAF
KCDC 300520Z 3006/3106 04005KT P6SM BKN080 BKN120
     FM300800 VRB03KT P6SM SCT080 SCT140
     FM301600 34007KT P6SM SCT080
     FM302100 02008KT P6SM SCT080 BKN140=



000
FTUS45 KSLC 300520
TAFBCE
TAF
KBCE 300520Z 3006/3106 32009KT P6SM VCSH SCT060 BKN100
     FM300800 34006KT P6SM SCT080 BKN120
     FM301800 31011KT P6SM SCT100 BKN140
     FM310300 31007KT P6SM SCT140=



000
FTUS45 KSLC 300454 AAB
TAFOGD
TAF AMD
KOGD 300454Z 3005/3024 05010KT P6SM -SHRA VCTS BKN080CB OVC100
      TEMPO 3005/3007 -TSRA SCT060 BKN080CB
     FM300700 VRB05KT P6SM VCSH SCT080 BKN100
     FM301600 30006KT P6SM SCT080 BKN110=



000
FTUS45 KSLC 300454 AAB
TAFOGD
TAF AMD
KOGD 300454Z 3005/3024 05010KT P6SM -SHRA VCTS BKN080CB OVC100
      TEMPO 3005/3007 -TSRA SCT060 BKN080CB
     FM300700 VRB05KT P6SM VCSH SCT080 BKN100
     FM301600 30006KT P6SM SCT080 BKN110=



000
FTUS45 KSLC 300447 AAC
TAFSLC
TAF AMD
KSLC 300447Z 3005/3106 35005KT P6SM FEW040 BKN090 BKN140
     FM300800 15006KT P6SM FEW040 SCT060 BKN140
     FM301600 35007KT P6SM SCT050 BKN100=



000
FTUS45 KSLC 300447 AAC
TAFSLC
TAF AMD
KSLC 300447Z 3005/3106 35005KT P6SM FEW040 BKN090 BKN140
     FM300800 15006KT P6SM FEW040 SCT060 BKN140
     FM301600 35007KT P6SM SCT050 BKN100=



000
FTUS45 KSLC 300257 AAB
TAFSLC
TAF AMD
KSLC 300257Z 3003/3106 01005KT P6SM FEW040 SCT060 BKN140
     FM300500 15006KT P6SM FEW040 SCT060 BKN140
     FM301600 35007KT P6SM SCT050 BKN100=



000
FTUS45 KSLC 300257 AAB
TAFSLC
TAF AMD
KSLC 300257Z 3003/3106 01005KT P6SM FEW040 SCT060 BKN140
     FM300500 15006KT P6SM FEW040 SCT060 BKN140
     FM301600 35007KT P6SM SCT050 BKN100=



000
FTUS45 KSLC 300110 AAA
TAFOGD
TAF AMD
KOGD 300110Z 3001/3024 17009KT P6SM SCT060 BKN080
     FM301600 30006KT P6SM SCT080 BKN110=



000
FTUS45 KSLC 300110 AAA
TAFOGD
TAF AMD
KOGD 300110Z 3001/3024 17009KT P6SM SCT060 BKN080
     FM301600 30006KT P6SM SCT080 BKN110=



000
FTUS45 KSLC 300040 AAA
TAFCDC
TAF AMD
KCDC 300040Z 3001/3024 06010KT 6SM -SHRA SCT030 BKN050
     FM300130 12006KT P6SM SCT050 BKN110
     FM301600 34007KT P6SM SCT080=



000
FTUS45 KSLC 300040 AAA
TAFCDC
TAF AMD
KCDC 300040Z 3001/3024 06010KT 6SM -SHRA SCT030 BKN050
     FM300130 12006KT P6SM SCT050 BKN110
     FM301600 34007KT P6SM SCT080=



000
FTUS45 KSLC 300035 AAA
TAFPVU
TAF AMD
KPVU 300035Z 3001/3024 18011KT P6SM VCTS SCT030CB BKN070
     FM300200 14008KT P6SM SCT030 BKN060
      AMD LTD TO CLD VIS AND WIND=



000
FTUS45 KSLC 300035 AAA
TAFPVU
TAF AMD
KPVU 300035Z 3001/3024 18011KT P6SM VCTS SCT030CB BKN070
     FM300200 14008KT P6SM SCT030 BKN060
      AMD LTD TO CLD VIS AND WIND=



000
FTUS45 KSLC 292341
TAFLGU
TAF
KLGU 292341Z 3000/3024 VRB05KT P6SM VCSH SCT040 BKN070
     FM301700 35006KT P6SM SCT100=



000
FTUS45 KSLC 292341
TAFOGD
TAF
KOGD 292341Z 3000/3024 31007KT P6SM VCTS SCT035CB BKN060
      TEMPO 3000/3002 VRB15G25KT 6SM -TSRA BKN035CB
     FM300200 12007KT P6SM VCSH BKN050 BKN080
     FM301600 30006KT P6SM SCT050 BKN110=



000
FTUS45 KSLC 292341
TAFCDC
TAF
KCDC 292341Z 3000/3024 13006KT P6SM VCSH SCT050 BKN070
     FM300300 VRB04KT P6SM SCT070
     FM301600 34007KT P6SM SCT080=



000
FTUS45 KSLC 292341
TAFENV
TAF
KENV 292341Z 3000/3024 32010KT P6SM VCSH SCT060 BKN090
     FM300200 VRB05KT P6SM SCT090 BKN140
     FM301500 09009KT P6SM SCT100 BKN150
      AMD LTD TO CLD VIS AND WIND=



000
FTUS45 KSLC 292341
TAFPVU
TAF
KPVU 292341Z 3000/3024 30008KT P6SM VCTS SCT030CB BKN090
     FM300200 14006KT P6SM SCT030 BKN080
      AMD LTD TO CLD VIS AND WIND=



000
FTUS45 KSLC 292341
TAFSGU
TAF
KSGU 292341Z 3000/3024 26012G19KT P6SM FEW100 SCT150
     FM300200 25009KT P6SM SCT150
      AMD LTD TO CLD VIS AND WIND=



000
FTUS45 KSLC 292341
TAFBCE
TAF
KBCE 292341Z 3000/3024 32009KT P6SM VCSH SCT060 BKN090
     FM300100 28009KT P6SM SCT080 BKN120
     FM300500 29007KT P6SM SCT120=



000
FTUS45 KSLC 292341
TAFSLC
TAF
KSLC 292341Z 3000/3106 30004KT P6SM VCTS SCT030CB BKN080
     FM300200 15006KT P6SM VCSH SCT030 BKN070
     FM301600 35007KT P6SM SCT050 BKN100=



000
FTUS45 KSLC 292341
TAFENV
TAF
KENV 292341Z 3000/3024 32010KT P6SM VCSH SCT060 BKN090
     FM300200 VRB05KT P6SM SCT090 BKN140
     FM301500 09009KT P6SM SCT100 BKN150
      AMD LTD TO CLD VIS AND WIND=



000
FTUS45 KSLC 292341
TAFLGU
TAF
KLGU 292341Z 3000/3024 VRB05KT P6SM VCSH SCT040 BKN070
     FM301700 35006KT P6SM SCT100=



000
FTUS45 KSLC 292341
TAFBCE
TAF
KBCE 292341Z 3000/3024 32009KT P6SM VCSH SCT060 BKN090
     FM300100 28009KT P6SM SCT080 BKN120
     FM300500 29007KT P6SM SCT120=



000
FTUS45 KSLC 292341
TAFSGU
TAF
KSGU 292341Z 3000/3024 26012G19KT P6SM FEW100 SCT150
     FM300200 25009KT P6SM SCT150
      AMD LTD TO CLD VIS AND WIND=



000
FTUS45 KSLC 292341
TAFPVU
TAF
KPVU 292341Z 3000/3024 30008KT P6SM VCTS SCT030CB BKN090
     FM300200 14006KT P6SM SCT030 BKN080
      AMD LTD TO CLD VIS AND WIND=



000
FTUS45 KSLC 292341
TAFCDC
TAF
KCDC 292341Z 3000/3024 13006KT P6SM VCSH SCT050 BKN070
     FM300300 VRB04KT P6SM SCT070
     FM301600 34007KT P6SM SCT080=



000
FTUS45 KSLC 292341
TAFOGD
TAF
KOGD 292341Z 3000/3024 31007KT P6SM VCTS SCT035CB BKN060
      TEMPO 3000/3002 VRB15G25KT 6SM -TSRA BKN035CB
     FM300200 12007KT P6SM VCSH BKN050 BKN080
     FM301600 30006KT P6SM SCT050 BKN110=



000
FTUS45 KSLC 292341
TAFSLC
TAF
KSLC 292341Z 3000/3106 30004KT P6SM VCTS SCT030CB BKN080
     FM300200 15006KT P6SM VCSH SCT030 BKN070
     FM301600 35007KT P6SM SCT050 BKN100=



    US Dept of Commerce
    National Oceanic and Atmospheric Administration
    National Weather Service
    1325 East West Highway
    Silver Spring, MD 20910
    Page Author: NWS Internet Services Team
Disclaimer
Information Quality
Credits
Glossary
Privacy Policy
Freedom of Information Act (FOIA)
About Us
Career Opportunities